Terminal Aerodrome Forecast
Issued by NWS Flagstaff, AZ

Home | Current Version | Previous Version | Text Only | Print | Product List | Glossary On
Versions: 1 2 3 4 5 6 7 8 9 10 11 12 13
000
FTUS45 KFGZ 280530
TAFINW
TAF
KINW 280530Z 2806/2906 24010KT P6SM VCSH BKN050 OVC070
     FM280900 30010KT P6SM BKN070
     FM281800 31015G25KT P6SM BKN060=

USA.gov is the U.S. government's official web portal to all federal, state and local government web resources and services.